Terminal Aerodrome Forecast
Issued by NWS

Home | Current Version | Previous Version | Text Only | Print | Product List | Glossary On
Versions: 1 2 3 4 5 6 7 8 9 10 11 12 13 14 15 16 17 18
000
FTUS43 KGRB 240500
TAFMTW
TAF
KMTW 240520Z 2406/2506 25007KT P6SM SCT025 BKN040
      TEMPO 2406/2409 BKN025
     FM240900 28006KT P6SM SCT025 BKN060
      TEMPO 2409/2413 6SM BR BKN025
     FM241500 27007KT P6SM SCT025 BKN035
     FM250200 04007KT 4SM -SN BKN020 OVC035
     FM250400 03012G20KT P6SM -SN BKN016 OVC028=

USA.gov is the U.S. government's official web portal to all federal, state and local government web resources and services.